Time;durP1;ratioP1;P1;durP2;ratioP2;P2;SDS_P1;SDS_P2;PMS_P1;PMS_P2;Temp;Humidity;BMP_temperature;BMP_pressure;BME280_temperature;BME280_humidity;BME280_pressure;Samples;Min_cycle;Max_cycle;Signal;HPM_P1;HPM_P2
2022/02/16 00:02:57;;;;;;;2.00;1.80;;;7.10;40.90;;;;;;10516691;28;20219;-70
2022/02/16 00:08:00;;;;;;;1.87;1.77;;;7.10;41.10;;;;;;10518931;28;20579;-70
2022/02/16 00:13:05;;;;;;;2.47;2.27;;;7.20;40.80;;;;;;10513923;28;20227;-70
2022/02/16 00:18:08;;;;;;;1.97;1.87;;;7.20;40.70;;;;;;10516488;28;20239;-70
2022/02/16 00:23:11;;;;;;;2.33;2.23;;;7.20;40.60;;;;;;10517049;28;20225;-70
2022/02/16 00:28:17;;;;;;;2.20;2.10;;;7.20;40.60;;;;;;10514510;28;20232;-70
2022/02/16 00:33:21;;;;;;;2.77;2.37;;;7.10;40.60;;;;;;10513721;28;20781;-70
2022/02/16 00:38:24;;;;;;;2.27;2.17;;;7.10;40.60;;;;;;10516987;28;20231;-70
2022/02/16 00:43:28;;;;;;;2.30;2.10;;;7.10;40.50;;;;;;10514387;28;20245;-70
2022/02/16 00:48:31;;;;;;;2.00;1.90;;;7.00;41.20;;;;;;10517437;28;20532;-70
2022/02/16 00:53:35;;;;;;;2.50;2.30;;;7.10;40.60;;;;;;10514471;28;20652;-70
2022/02/16 00:58:39;;;;;;;2.23;2.10;;;7.10;40.40;;;;;;10513990;28;20238;-70
2022/02/16 01:03:43;;;;;;;2.17;1.97;;;7.00;40.30;;;;;;10512396;28;20238;-70
2022/02/16 01:08:46;;;;;;;2.40;2.20;;;7.00;40.30;;;;;;10513877;28;20326;-70
2022/02/16 01:13:50;;;;;;;2.07;1.97;;;6.90;40.20;;;;;;10510888;28;20296;-70
2022/02/16 01:18:54;;;;;;;2.87;2.10;;;6.90;40.30;;;;;;10510313;28;20233;-70
2022/02/16 01:23:57;;;;;;;4.33;2.27;;;6.90;40.20;;;;;;10516167;28;20224;-70
2022/02/16 01:29:02;;;;;;;2.30;2.10;;;6.80;40.00;;;;;;10514953;28;20227;-70
2022/02/16 01:34:05;;;;;;;1.90;1.80;;;6.80;40.20;;;;;;10513937;28;20228;-70
2022/02/16 01:39:08;;;;;;;2.03;1.93;;;6.70;40.10;;;;;;10514270;28;20230;-70
2022/02/16 01:44:13;;;;;;;2.30;2.10;;;6.70;40.20;;;;;;10512890;28;20223;-70
2022/02/16 01:49:16;;;;;;;1.90;1.80;;;6.70;40.00;;;;;;10513573;28;20227;-70
2022/02/16 01:54:19;;;;;;;1.90;1.80;;;6.70;39.90;;;;;;10514214;28;20248;-70
2022/02/16 01:59:27;;;;;;;1.90;1.80;;;6.70;39.90;;;;;;10514464;28;20234;-70
2022/02/16 02:04:31;;;;;;;1.83;1.73;;;6.70;40.00;;;;;;10514245;28;20797;-70
2022/02/16 02:09:34;;;;;;;2.30;1.60;;;6.60;39.80;;;;;;10510831;28;20224;-70
2022/02/16 02:14:38;;;;;;;1.50;1.40;;;6.60;40.60;;;;;;10513095;28;20262;-70
2022/02/16 02:19:41;;;;;;;1.50;1.40;;;6.40;39.70;;;;;;10514228;28;21027;-70
2022/02/16 02:24:46;;;;;;;1.27;1.17;;;6.40;39.80;;;;;;10512381;28;20230;-70
2022/02/16 02:29:49;;;;;;;1.23;1.13;;;6.50;40.10;;;;;;10514558;28;20224;-70
2022/02/16 02:34:53;;;;;;;1.57;1.17;;;6.40;40.00;;;;;;10517915;28;20326;-70
2022/02/16 02:39:58;;;;;;;1.33;1.17;;;6.40;40.10;;;;;;10520016;28;20231;-70
2022/02/16 02:45:04;;;;;;;1.83;1.27;;;6.40;40.10;;;;;;10520187;28;20219;-70
2022/02/16 02:50:08;;;;;;;1.33;1.10;;;6.50;40.20;;;;;;10518850;28;20232;-70
2022/02/16 02:55:14;;;;;;;1.33;1.13;;;6.50;40.20;;;;;;10522346;28;20220;-70
2022/02/16 03:00:18;;;;;;;1.30;0.90;;;6.60;40.10;;;;;;10521076;28;20227;-70
2022/02/16 03:05:21;;;;;;;0.90;0.90;;;6.60;40.20;;;;;;10523345;28;20231;-70
2022/02/16 03:10:25;;;;;;;1.17;1.07;;;6.70;40.10;;;;;;10519161;28;20227;-70
2022/02/16 03:15:29;;;;;;;1.00;1.00;;;6.80;39.90;;;;;;10516116;28;20609;-70
2022/02/16 03:20:32;;;;;;;2.73;1.20;;;6.90;39.90;;;;;;10522281;28;20226;-70
2022/02/16 03:25:36;;;;;;;1.37;0.93;;;7.00;39.70;;;;;;10517646;28;20721;-70
2022/02/16 03:30:42;;;;;;;1.33;1.00;;;7.10;39.50;;;;;;10514842;28;20223;-69
2022/02/16 03:36:05;;;;;;;0.90;0.90;;;7.20;39.70;;;;;;10519825;28;20226;-69
2022/02/16 03:41:10;;;;;;;0.83;0.80;;;7.30;39.60;;;;;;10516904;28;20512;-69
2022/02/16 03:46:13;;;;;;;1.57;0.90;;;7.30;39.20;;;;;;10518632;28;20239;-69
2022/02/16 03:51:17;;;;;;;1.10;1.00;;;7.40;39.30;;;;;;10517713;28;20215;-69
2022/02/16 03:56:21;;;;;;;1.33;0.90;;;7.40;39.10;;;;;;10521652;28;20226;-69
2022/02/16 04:01:24;;;;;;;2.33;1.10;;;7.40;38.80;;;;;;10515781;28;20227;-69
2022/02/16 04:06:28;;;;;;;1.03;0.90;;;7.30;38.70;;;;;;10518809;28;20230;-69
2022/02/16 04:11:32;;;;;;;1.50;0.90;;;7.30;38.90;;;;;;10517206;28;20707;-69
2022/02/16 04:16:36;;;;;;;0.97;0.90;;;7.20;38.60;;;;;;10516816;28;20227;-69
2022/02/16 04:21:39;;;;;;;1.00;0.80;;;7.20;39.00;;;;;;10518464;28;20234;-69
2022/02/16 04:26:44;;;;;;;1.57;1.10;;;7.10;38.90;;;;;;10519093;28;20238;-69
2022/02/16 04:31:47;;;;;;;1.13;0.90;;;7.10;38.90;;;;;;10517065;28;20266;-69
2022/02/16 04:36:51;;;;;;;0.90;0.90;;;7.10;39.10;;;;;;10520475;28;20223;-69
2022/02/16 04:41:55;;;;;;;1.20;1.10;;;7.00;39.00;;;;;;10513089;28;20222;-72
2022/02/16 04:46:58;;;;;;;1.20;1.10;;;7.00;39.00;;;;;;10516599;28;20235;-72
2022/02/16 04:52:02;;;;;;;1.33;0.97;;;7.00;38.90;;;;;;10513683;28;20632;-71
2022/02/16 04:57:06;;;;;;;1.33;1.00;;;7.00;39.00;;;;;;10512992;28;20235;-72
2022/02/16 05:02:10;;;;;;;1.40;1.00;;;6.90;38.90;;;;;;10513266;28;20226;-72
2022/02/16 05:07:13;;;;;;;0.80;0.80;;;6.90;39.10;;;;;;10514798;28;20227;-72
2022/02/16 05:12:17;;;;;;;1.43;1.00;;;6.90;39.00;;;;;;10512918;28;20226;-72
2022/02/16 05:17:20;;;;;;;0.97;0.97;;;6.90;38.90;;;;;;10513550;28;20317;-72
2022/02/16 05:22:24;;;;;;;1.40;1.20;;;6.90;38.90;;;;;;10515610;28;20610;-73
2022/02/16 05:27:33;;;;;;;1.10;1.10;;;6.90;38.80;;;;;;10511586;28;20298;-72
2022/02/16 05:32:37;;;;;;;0.87;0.87;;;6.90;38.70;;;;;;10512486;28;20595;-72
2022/02/16 05:37:40;;;;;;;1.27;1.10;;;7.00;38.80;;;;;;10513994;28;20227;-71
2022/02/16 05:42:45;;;;;;;1.00;1.00;;;7.00;38.70;;;;;;10511581;28;20627;-72
2022/02/16 05:47:48;;;;;;;1.10;1.10;;;7.00;38.40;;;;;;10515062;28;20648;-69
2022/02/16 05:52:51;;;;;;;1.40;1.30;;;7.00;38.40;;;;;;10513835;28;20228;-69
2022/02/16 05:57:56;;;;;;;1.53;1.23;;;7.10;38.50;;;;;;10512496;28;20230;-68
2022/02/16 06:02:59;;;;;;;1.50;1.40;;;7.10;38.50;;;;;;10513533;28;20246;-68
2022/02/16 06:08:02;;;;;;;1.30;1.20;;;7.20;38.60;;;;;;10510713;28;20605;-71
2022/02/16 06:13:07;;;;;;;1.20;1.10;;;7.20;38.60;;;;;;10513875;28;20240;-70
2022/02/16 06:18:10;;;;;;;1.00;1.00;;;7.30;38.70;;;;;;10510196;28;20223;-70
2022/02/16 06:23:13;;;;;;;1.53;1.00;;;7.30;38.70;;;;;;10510905;28;20230;-70
2022/02/16 06:28:18;;;;;;;1.87;1.00;;;7.30;38.70;;;;;;10511532;28;20224;-70
2022/02/16 06:33:25;;;;;;;0.90;0.83;;;7.30;38.60;;;;;;10512567;28;20634;-70
2022/02/16 06:38:28;;;;;;;1.03;1.03;;;7.40;38.60;;;;;;10506713;28;20695;-70
2022/02/16 06:43:33;;;;;;;0.90;0.90;;;7.30;38.60;;;;;;10514159;28;20715;-70
2022/02/16 06:48:36;;;;;;;1.13;1.00;;;7.30;38.50;;;;;;10517402;28;20224;-68
2022/02/16 06:53:39;;;;;;;2.40;1.20;;;7.30;38.70;;;;;;10519186;28;20227;-68
2022/02/16 06:58:44;;;;;;;2.57;1.37;;;7.30;38.50;;;;;;10519676;28;20628;-70
2022/02/16 07:03:47;;;;;;;1.50;1.40;;;7.30;38.40;;;;;;10521673;28;20216;-70
2022/02/16 07:08:50;;;;;;;2.30;1.50;;;7.30;38.60;;;;;;10518772;28;20224;-68
2022/02/16 07:13:56;;;;;;;1.50;1.40;;;7.30;38.60;;;;;;10521471;28;20228;-68
2022/02/16 07:18:59;;;;;;;1.67;1.53;;;7.30;38.50;;;;;;10523865;28;20226;-68
2022/02/16 07:24:02;;;;;;;1.37;1.27;;;7.40;38.60;;;;;;10527665;28;20227;-69
2022/02/16 07:29:07;;;;;;;1.33;1.20;;;7.40;38.70;;;;;;10525531;28;20228;-69
2022/02/16 07:34:14;;;;;;;0.93;0.93;;;7.40;38.40;;;;;;10524619;28;20322;-72
2022/02/16 07:39:27;;;;;;;0.90;0.90;;;7.40;38.60;;;;;;10527968;28;20281;-72
2022/02/16 07:44:32;;;;;;;0.97;0.90;;;7.50;38.80;;;;;;10525677;28;20228;-72
2022/02/16 07:49:35;;;;;;;1.10;1.10;;;7.50;38.40;;;;;;10523480;28;20227;-68
2022/02/16 07:54:39;;;;;;;1.20;1.10;;;7.60;38.50;;;;;;10526567;28;20228;-72
2022/02/16 07:59:43;;;;;;;0.90;0.90;;;7.60;38.50;;;;;;10524130;28;20235;-69
2022/02/16 08:04:46;;;;;;;0.90;0.90;;;7.60;38.20;;;;;;10526765;28;20234;-69
2022/02/16 08:09:50;;;;;;;3.00;1.00;;;7.70;38.40;;;;;;10516519;28;20227;-69
2022/02/16 08:14:55;;;;;;;1.00;1.00;;;7.70;38.30;;;;;;10519882;28;20223;-69
2022/02/16 08:19:58;;;;;;;1.20;1.10;;;7.80;38.20;;;;;;10524396;28;21075;-69
2022/02/16 08:25:01;;;;;;;1.30;1.20;;;7.90;38.30;;;;;;10525326;28;20312;-68
2022/02/16 08:30:07;;;;;;;1.20;1.10;;;7.90;38.20;;;;;;10522935;28;20235;-69
2022/02/16 08:35:13;;;;;;;1.20;1.10;;;8.00;38.10;;;;;;10523103;28;20228;-69
2022/02/16 08:40:17;;;;;;;1.20;1.13;;;8.00;38.30;;;;;;10520663;28;21631;-69
2022/02/16 08:45:42;;;;;;;1.17;1.17;;;8.10;38.30;;;;;;10521431;28;20219;-69
2022/02/16 08:50:45;;;;;;;0.93;0.90;;;8.30;38.60;;;;;;10522074;28;20227;-69
2022/02/16 08:55:48;;;;;;;1.07;0.97;;;8.40;38.90;;;;;;10523589;28;20238;-69
2022/02/16 09:00:53;;;;;;;1.30;1.03;;;8.60;39.00;;;;;;10518407;28;20478;-69
2022/02/16 09:05:59;;;;;;;1.00;0.97;;;8.70;38.60;;;;;;10513064;28;20227;-69
2022/02/16 09:11:02;;;;;;;1.57;1.47;;;8.90;38.80;;;;;;10523107;28;20302;-69
2022/02/16 09:16:07;;;;;;;1.37;1.27;;;9.10;38.70;;;;;;10521786;28;20227;-69
2022/02/16 09:21:10;;;;;;;0.90;0.90;;;9.40;38.60;;;;;;10519855;28;20234;-69
2022/02/16 09:26:13;;;;;;;2.83;0.90;;;9.50;38.40;;;;;;10523529;28;20231;-69
2022/02/16 09:31:17;;;;;;;0.70;0.57;;;9.70;38.40;;;;;;10520872;28;20232;-69
2022/02/16 09:36:20;;;;;;;0.90;0.80;;;9.90;38.20;;;;;;10519221;28;20227;-69
2022/02/16 09:41:25;;;;;;;0.63;0.63;;;10.00;37.30;;;;;;10513046;28;20224;-70
2022/02/16 09:46:31;;;;;;;0.67;0.67;;;10.20;37.40;;;;;;10519651;28;20240;-69
2022/02/16 09:51:34;;;;;;;0.70;0.70;;;10.30;37.00;;;;;;10520476;28;20219;-69
2022/02/16 09:56:41;;;;;;;1.53;0.70;;;10.50;37.30;;;;;;10521625;28;20231;-69
2022/02/16 10:01:58;;;;;;;0.70;0.70;;;10.60;37.50;;;;;;10517488;28;20219;-69
2022/02/16 10:07:01;;;;;;;0.60;0.60;;;10.70;37.30;;;;;;10515606;28;20325;-69
2022/02/16 10:12:06;;;;;;;0.83;0.80;;;10.80;37.60;;;;;;10519091;28;20220;-69
2022/02/16 10:17:22;;;;;;;0.97;0.97;;;10.90;37.60;;;;;;10519838;28;20600;-70
2022/02/16 10:22:28;;;;;;;0.73;0.73;;;11.00;37.30;;;;;;10522969;28;20222;-69
2022/02/16 10:27:31;;;;;;;1.10;1.10;;;11.00;37.40;;;;;;10519620;28;20231;-69
2022/02/16 10:32:36;;;;;;;0.80;0.80;;;11.10;37.60;;;;;;10520373;28;20216;-69
2022/02/16 10:37:41;;;;;;;0.80;0.80;;;11.10;37.60;;;;;;10520354;28;20615;-72
2022/02/16 10:42:56;;;;;;;0.60;0.60;;;11.20;37.80;;;;;;10516967;28;21571;-72
2022/02/16 10:48:03;;;;;;;0.60;0.60;;;11.20;37.90;;;;;;10517420;28;20227;-72
2022/02/16 10:53:08;;;;;;;0.70;0.70;;;11.20;37.80;;;;;;10517904;28;20227;-72
2022/02/16 10:58:14;;;;;;;0.77;0.77;;;11.20;38.00;;;;;;10525642;28;20238;-72
2022/02/16 11:03:26;;;;;;;0.70;0.70;;;11.20;38.10;;;;;;10521986;28;20243;-72
2022/02/16 11:08:31;;;;;;;1.07;1.07;;;11.20;38.40;;;;;;10525475;28;20236;-73
2022/02/16 11:13:55;;;;;;;0.80;0.80;;;11.20;38.30;;;;;;10527402;28;20220;-73
2022/02/16 11:19:03;;;;;;;1.10;1.00;;;11.20;38.30;;;;;;10524993;28;20239;-73
2022/02/16 11:24:07;;;;;;;0.70;0.70;;;11.30;38.50;;;;;;10526639;28;20230;-73
2022/02/16 11:29:41;;;;;;;0.63;0.63;;;11.30;38.60;;;;;;10524128;28;20224;-72
2022/02/16 11:34:46;;;;;;;0.70;0.70;;;11.20;38.60;;;;;;10523487;28;20230;-72
2022/02/16 11:40:03;;;;;;;0.80;0.80;;;11.20;38.90;;;;;;10524074;28;20227;-72
2022/02/16 11:45:07;;;;;;;0.70;0.70;;;11.20;39.30;;;;;;10522698;28;20215;-72
2022/02/16 11:50:40;;;;;;;1.10;0.80;;;11.20;39.00;;;;;;10521697;28;20223;-73
2022/02/16 11:55:44;;;;;;;0.90;0.90;;;11.30;39.30;;;;;;10522647;28;20242;-73
2022/02/16 12:01:03;;;;;;;0.80;0.80;;;11.30;39.40;;;;;;10522165;28;20790;-73
2022/02/16 12:06:13;;;;;;;0.70;0.70;;;11.40;39.70;;;;;;10523010;28;20220;-73
2022/02/16 12:11:23;;;;;;;0.70;0.70;;;11.50;39.40;;;;;;10514963;28;20233;-70
2022/02/16 12:16:30;;;;;;;0.80;0.80;;;11.60;39.70;;;;;;10510865;28;20230;-69
2022/02/16 12:21:37;;;;;;;0.70;0.70;;;11.70;39.30;;;;;;10508695;28;20227;-69
2022/02/16 12:26:42;;;;;;;0.70;0.70;;;11.80;39.20;;;;;;10511290;28;20231;-69
2022/02/16 12:31:47;;;;;;;0.80;0.80;;;11.80;39.10;;;;;;10524355;28;20695;-69
2022/02/16 12:36:54;;;;;;;0.60;0.60;;;11.90;39.10;;;;;;10519565;28;20220;-69
2022/02/16 12:42:02;;;;;;;0.63;0.63;;;11.90;39.20;;;;;;10518917;28;20250;-69
2022/02/16 12:47:08;;;;;;;0.87;0.70;;;12.00;38.90;;;;;;10524916;28;20230;-69
2022/02/16 12:52:15;;;;;;;0.70;0.70;;;12.00;39.10;;;;;;10522460;28;20232;-69
2022/02/16 12:57:18;;;;;;;0.70;0.70;;;12.00;39.10;;;;;;10518629;28;20224;-69
2022/02/16 13:02:22;;;;;;;0.50;0.50;;;12.00;39.10;;;;;;10518930;28;21467;-69
2022/02/16 13:07:29;;;;;;;0.90;0.90;;;12.00;39.20;;;;;;10519117;28;20228;-70
2022/02/16 13:12:33;;;;;;;0.80;0.80;;;12.00;39.70;;;;;;10517972;28;20220;-70
2022/02/16 13:17:42;;;;;;;1.13;1.13;;;12.00;39.60;;;;;;10518733;28;20238;-74
2022/02/16 13:22:51;;;;;;;1.07;0.90;;;12.00;40.00;;;;;;10518756;28;20220;-74
2022/02/16 13:27:55;;;;;;;0.97;0.97;;;12.00;40.20;;;;;;10518845;28;20670;-74
2022/02/16 13:33:00;;;;;;;0.90;0.90;;;11.90;39.90;;;;;;10515864;28;20219;-74
2022/02/16 13:38:07;;;;;;;1.13;1.13;;;11.80;40.00;;;;;;10516436;28;20235;-73
2022/02/16 13:43:10;;;;;;;1.70;1.60;;;11.80;40.40;;;;;;10517980;28;20219;-73
2022/02/16 13:48:23;;;;;;;2.90;2.60;;;11.80;40.30;;;;;;10518257;28;20262;-73
2022/02/16 13:53:34;;;;;;;1.20;1.20;;;11.80;40.40;;;;;;10515879;28;20231;-73
2022/02/16 13:58:37;;;;;;;1.10;1.00;;;11.90;40.30;;;;;;10519401;28;20215;-74
2022/02/16 14:03:43;;;;;;;1.83;1.70;;;11.90;40.10;;;;;;10518312;28;20215;-74
2022/02/16 14:08:47;;;;;;;1.63;1.53;;;12.00;40.00;;;;;;10517283;28;20223;-71
2022/02/16 14:13:51;;;;;;;0.80;0.80;;;12.00;39.60;;;;;;10517985;28;20591;-71
2022/02/16 14:24:16;;;;;;;0.70;0.70;;;12.20;39.70;;;;;;10518546;28;20223;-71
2022/02/16 14:29:20;;;;;;;0.70;0.70;;;12.20;39.60;;;;;;10530993;28;20254;-71
2022/02/16 14:34:23;;;;;;;0.90;0.90;;;12.30;39.50;;;;;;10531090;28;20235;-71
2022/02/16 14:39:28;;;;;;;0.70;0.70;;;12.30;39.50;;;;;;10531521;28;20222;-70
2022/02/16 14:44:31;;;;;;;1.63;0.80;;;12.40;39.30;;;;;;10528692;28;20220;-70
2022/02/16 14:49:35;;;;;;;0.80;0.80;;;12.40;39.30;;;;;;10533342;28;20238;-69
2022/02/16 14:54:43;;;;;;;1.50;1.37;;;12.40;39.10;;;;;;10533366;28;20254;-70
2022/02/16 14:59:46;;;;;;;1.40;1.30;;;12.50;39.10;;;;;;10530345;28;20246;-70
2022/02/16 15:04:49;;;;;;;1.30;1.20;;;12.50;39.00;;;;;;10531593;28;20241;-70
2022/02/16 15:09:54;;;;;;;1.00;1.00;;;12.50;39.00;;;;;;10524154;28;20703;-70
2022/02/16 15:14:57;;;;;;;1.93;1.30;;;12.50;39.00;;;;;;10530312;28;20234;-70
2022/02/16 15:20:01;;;;;;;1.50;1.40;;;12.50;39.20;;;;;;10533102;28;20230;-70
2022/02/16 15:25:06;;;;;;;1.10;1.10;;;12.50;38.90;;;;;;10533881;28;20619;-70
2022/02/16 15:30:28;;;;;;;1.03;1.03;;;12.50;38.90;;;;;;10531711;28;20701;-70
2022/02/16 15:35:32;;;;;;;0.80;0.80;;;12.50;39.00;;;;;;10534129;28;20636;-70
2022/02/16 15:40:37;;;;;;;0.93;0.93;;;12.60;39.00;;;;;;10528798;28;20535;-70
2022/02/16 15:45:40;;;;;;;0.80;0.80;;;12.60;39.00;;;;;;10524622;28;20226;-71
2022/02/16 15:50:44;;;;;;;0.90;0.90;;;12.60;39.00;;;;;;10522232;28;20219;-71
2022/02/16 15:55:50;;;;;;;0.80;0.80;;;12.60;39.00;;;;;;10523934;28;20228;-70
2022/02/16 16:00:53;;;;;;;1.43;1.30;;;12.60;38.90;;;;;;10522293;28;21440;-71
2022/02/16 16:05:57;;;;;;;2.23;1.00;;;12.60;38.90;;;;;;10519089;28;20225;-70
2022/02/16 16:11:02;;;;;;;0.90;0.90;;;12.60;39.00;;;;;;10521559;28;20220;-70
2022/02/16 16:16:05;;;;;;;0.70;0.70;;;12.60;39.10;;;;;;10518213;28;20226;-70
2022/02/16 16:21:09;;;;;;;0.70;0.70;;;12.60;39.10;;;;;;10521908;28;20226;-70
2022/02/16 16:26:13;;;;;;;1.60;0.90;;;12.60;39.10;;;;;;10518372;28;20223;-70
2022/02/16 16:31:17;;;;;;;0.80;0.80;;;12.50;39.00;;;;;;10521017;28;20227;-70
2022/02/16 16:36:20;;;;;;;1.60;0.90;;;12.60;39.20;;;;;;10519389;28;20688;-70
2022/02/16 16:41:25;;;;;;;0.97;0.97;;;12.50;39.20;;;;;;10519262;28;20227;-70
2022/02/16 16:46:28;;;;;;;1.30;1.20;;;12.50;39.20;;;;;;10518940;28;20240;-70
2022/02/16 16:51:32;;;;;;;1.10;1.10;;;12.50;39.30;;;;;;10518329;28;20223;-70
2022/02/16 16:56:39;;;;;;;1.00;1.00;;;12.60;39.40;;;;;;10521130;28;20228;-70
2022/02/16 17:01:42;;;;;;;0.90;0.90;;;12.60;39.40;;;;;;10520976;28;20243;-70
2022/02/16 17:06:46;;;;;;;0.80;0.80;;;12.60;39.40;;;;;;10522216;28;20233;-73
2022/02/16 17:11:51;;;;;;;1.10;1.00;;;12.60;39.40;;;;;;10520897;28;20742;-73
2022/02/16 17:16:54;;;;;;;1.07;1.07;;;12.60;39.50;;;;;;10523511;28;20227;-73
2022/02/16 17:21:57;;;;;;;1.10;1.00;;;12.60;39.50;;;;;;10519273;28;20612;-73
2022/02/16 17:27:02;;;;;;;1.10;1.10;;;12.60;39.50;;;;;;10521811;28;20239;-73
2022/02/16 17:32:06;;;;;;;2.47;1.70;;;12.60;39.60;;;;;;10519814;28;20310;-73
2022/02/16 17:37:09;;;;;;;1.30;1.20;;;12.60;39.60;;;;;;10516411;28;20235;-73
2022/02/16 17:42:14;;;;;;;1.30;1.20;;;12.60;39.60;;;;;;10515420;28;20579;-73
2022/02/16 17:47:20;;;;;;;1.10;1.10;;;12.70;39.50;;;;;;10516476;28;20227;-73
2022/02/16 17:52:24;;;;;;;1.87;1.20;;;12.70;39.50;;;;;;10515403;28;20227;-72
2022/02/16 17:57:28;;;;;;;0.90;0.90;;;12.70;39.50;;;;;;10518198;28;20620;-72
2022/02/16 18:02:32;;;;;;;0.93;0.93;;;12.70;39.50;;;;;;10517271;28;20215;-72
2022/02/16 18:07:35;;;;;;;0.90;0.90;;;12.70;39.40;;;;;;10518513;28;20234;-72
2022/02/16 18:12:41;;;;;;;1.13;1.00;;;12.80;39.60;;;;;;10517337;28;20231;-71
2022/02/16 18:17:45;;;;;;;1.03;1.03;;;12.80;39.60;;;;;;10517694;28;20310;-72
2022/02/16 18:22:48;;;;;;;1.00;1.00;;;12.80;39.60;;;;;;10513025;28;20311;-71
2022/02/16 18:27:55;;;;;;;1.20;1.10;;;12.80;39.60;;;;;;10518001;28;20219;-71
2022/02/16 18:32:58;;;;;;;0.90;0.90;;;12.80;39.60;;;;;;10517699;28;20231;-71
2022/02/16 18:38:02;;;;;;;1.03;1.03;;;12.80;39.60;;;;;;10517854;28;20956;-71
2022/02/16 18:43:06;;;;;;;1.30;1.20;;;12.80;39.60;;;;;;10514943;28;20222;-71
2022/02/16 18:48:09;;;;;;;1.10;0.90;;;12.90;39.60;;;;;;10515999;28;20226;-71
2022/02/16 18:53:13;;;;;;;1.90;0.90;;;12.90;39.60;;;;;;10515635;28;20242;-73
2022/02/16 18:58:17;;;;;;;0.80;0.80;;;12.90;39.60;;;;;;10516029;28;20227;-73
2022/02/16 19:03:22;;;;;;;1.73;0.97;;;12.90;39.70;;;;;;10516286;28;20215;-73
2022/02/16 19:08:25;;;;;;;1.10;1.10;;;13.00;39.70;;;;;;10516253;28;20232;-73
2022/02/16 19:13:32;;;;;;;1.63;1.53;;;13.00;39.60;;;;;;10519590;28;20235;-74
2022/02/16 19:18:35;;;;;;;1.40;1.30;;;13.00;39.70;;;;;;10524004;28;20301;-73
2022/02/16 19:23:40;;;;;;;0.90;0.90;;;13.00;39.70;;;;;;10524877;28;20251;-73
2022/02/16 19:28:45;;;;;;;0.87;0.87;;;13.00;39.80;;;;;;10514558;28;20671;-73
2022/02/16 19:33:49;;;;;;;0.80;0.80;;;13.10;40.60;;;;;;10518784;28;20223;-73
2022/02/16 19:38:52;;;;;;;0.90;0.90;;;13.10;39.80;;;;;;10522114;28;20288;-73
2022/02/16 19:43:59;;;;;;;1.10;1.10;;;13.10;39.70;;;;;;10519871;28;20215;-73
2022/02/16 19:49:02;;;;;;;0.80;0.80;;;13.20;40.60;;;;;;10522122;28;20914;-73
2022/02/16 19:54:07;;;;;;;0.80;0.80;;;13.20;39.90;;;;;;10520701;28;20230;-73
2022/02/16 19:59:12;;;;;;;1.37;1.27;;;13.20;39.80;;;;;;10523035;28;20227;-72
2022/02/16 20:04:16;;;;;;;4.97;2.67;;;13.30;39.80;;;;;;10523488;28;20224;-73
2022/02/16 20:09:19;;;;;;;1.40;1.00;;;13.30;39.90;;;;;;10523164;28;20228;-73
2022/02/16 20:14:24;;;;;;;0.97;0.97;;;13.30;39.80;;;;;;10524401;28;20227;-73
2022/02/16 20:19:27;;;;;;;0.80;0.80;;;13.40;39.90;;;;;;10520330;28;20238;-73
2022/02/16 20:24:31;;;;;;;1.00;1.00;;;13.40;39.80;;;;;;10513871;28;20234;-73
2022/02/16 20:29:37;;;;;;;0.90;0.90;;;13.50;39.80;;;;;;10521952;28;20245;-73
2022/02/16 20:34:43;;;;;;;0.80;0.80;;;13.50;39.70;;;;;;10515767;28;20221;-71
2022/02/16 20:39:46;;;;;;;0.90;0.90;;;13.50;39.70;;;;;;10520398;28;20251;-71
2022/02/16 20:44:52;;;;;;;1.07;0.80;;;13.60;39.80;;;;;;10519694;28;20237;-70
2022/02/16 20:49:55;;;;;;;0.90;0.90;;;13.60;39.70;;;;;;10519765;28;20246;-70
2022/02/16 20:54:58;;;;;;;0.70;0.70;;;13.60;39.70;;;;;;10525013;28;20233;-70
2022/02/16 21:00:05;;;;;;;0.90;0.90;;;13.70;39.80;;;;;;10520275;28;20707;-70
2022/02/16 21:05:09;;;;;;;0.90;0.90;;;13.60;39.70;;;;;;10511516;28;20687;-70
2022/02/16 21:10:13;;;;;;;0.70;0.70;;;13.70;39.80;;;;;;10518341;28;20824;-71
2022/02/16 21:15:17;;;;;;;0.77;0.77;;;13.80;40.00;;;;;;10518088;28;20595;-71
2022/02/16 21:20:22;;;;;;;0.80;0.80;;;13.80;39.90;;;;;;10516538;28;20230;-71
2022/02/16 21:25:26;;;;;;;0.80;0.80;;;13.90;39.90;;;;;;10518136;28;20308;-71
2022/02/16 21:30:31;;;;;;;0.77;0.77;;;13.90;39.90;;;;;;10515080;28;20541;-71
2022/02/16 21:35:49;;;;;;;1.40;1.30;;;14.00;40.00;;;;;;10517902;28;20227;-71
2022/02/16 21:40:53;;;;;;;1.10;1.00;;;14.00;40.20;;;;;;10517178;28;20677;-71
2022/02/16 21:46:13;;;;;;;1.50;1.40;;;14.10;40.40;;;;;;10519146;28;20332;-71
2022/02/16 21:51:16;;;;;;;1.00;1.00;;;14.10;40.50;;;;;;10514413;28;20220;-70
2022/02/16 21:56:20;;;;;;;1.30;1.20;;;14.10;40.60;;;;;;10508603;28;20219;-70
2022/02/16 22:01:25;;;;;;;0.80;0.80;;;14.10;40.70;;;;;;10506219;28;20227;-70
2022/02/16 22:06:28;;;;;;;0.70;0.70;;;14.10;40.80;;;;;;10506733;28;20708;-70
2022/02/16 22:11:31;;;;;;;0.60;0.60;;;14.10;40.70;;;;;;10504443;28;20226;-70
2022/02/16 22:16:37;;;;;;;0.90;0.63;;;14.20;40.80;;;;;;10506683;28;20556;-70
2022/02/16 22:21:40;;;;;;;0.70;0.70;;;14.20;40.80;;;;;;10508225;28;20219;-70
2022/02/16 22:26:43;;;;;;;0.50;0.50;;;14.20;40.80;;;;;;10505093;28;20228;-70
2022/02/16 22:31:48;;;;;;;0.93;0.70;;;14.30;40.50;;;;;;10503956;28;20693;-70
2022/02/16 22:36:51;;;;;;;0.77;0.70;;;14.30;40.50;;;;;;10507220;28;20219;-71
2022/02/16 22:41:56;;;;;;;0.60;0.60;;;14.30;40.30;;;;;;10505108;28;20607;-70
2022/02/16 22:47:01;;;;;;;0.70;0.70;;;14.30;40.40;;;;;;10507481;28;20231;-70
2022/02/16 22:52:04;;;;;;;0.80;0.80;;;14.40;40.50;;;;;;10515823;28;20691;-70
2022/02/16 22:57:08;;;;;;;0.60;0.60;;;14.30;40.40;;;;;;10516523;28;20228;-70
2022/02/16 23:13:06;;;;;;;0.63;0.63;;;14.50;40.60;;;;;;10512411;28;20445;-70
2022/02/16 23:18:11;;;;;;;0.60;0.60;;;14.50;40.70;;;;;;10513122;28;21147;-70
2022/02/16 23:23:14;;;;;;;0.57;0.57;;;14.50;41.00;;;;;;10516142;28;20227;-70
2022/02/16 23:28:18;;;;;;;0.60;0.60;;;14.50;40.90;;;;;;10514128;28;20228;-71
2022/02/16 23:33:23;;;;;;;0.87;0.70;;;14.50;41.10;;;;;;10519419;28;20219;-71
2022/02/16 23:38:26;;;;;;;0.80;0.63;;;14.40;41.50;;;;;;10518900;28;20239;-71
2022/02/16 23:43:29;;;;;;;0.70;0.70;;;14.40;41.40;;;;;;10515176;28;20223;-71
2022/02/16 23:48:34;;;;;;;0.70;0.70;;;14.40;41.70;;;;;;10518841;28;20707;-71
2022/02/16 23:53:37;;;;;;;0.60;0.60;;;14.30;42.00;;;;;;10514148;28;21023;-71
2022/02/16 23:58:41;;;;;;;0.60;0.60;;;14.30;41.90;;;;;;10515296;28;20223;-71
